sensor_id;sensor_type;location;lat;lon;timestamp;pressure;altitude;pressure_sealevel;temperature;humidity
47763;BME280;33526;42.690;23.322;2023-12-20T00:01:34;95437.81;;;-0.04;100.00
47763;BME280;33526;42.690;23.322;2023-12-20T00:04:00;95369.81;;;-0.50;100.00
47763;BME280;33526;42.690;23.322;2023-12-20T00:06:25;95429.56;;;-0.07;100.00
47763;BME280;33526;42.690;23.322;2023-12-20T00:08:50;95480.25;;;0.17;100.00
47763;BME280;33526;42.690;23.322;2023-12-20T00:11:16;95480.66;;;0.19;100.00
47763;BME280;33526;42.690;23.322;2023-12-20T00:13:41;95465.75;;;0.24;100.00
47763;BME280;33526;42.690;23.322;2023-12-20T00:16:07;95431.50;;;-0.08;100.00
47763;BME280;33526;42.690;23.322;2023-12-20T00:18:32;95398.88;;;-0.34;100.00
47763;BME280;33526;42.690;23.322;2023-12-20T00:20:57;95322.66;;;-0.81;100.00
47763;BME280;33526;42.690;23.322;2023-12-20T00:23:23;95409.50;;;-0.22;100.00
47763;BME280;33526;42.690;23.322;2023-12-20T00:25:49;95298.31;;;-0.93;100.00
47763;BME280;33526;42.690;23.322;2023-12-20T00:28:14;95414.22;;;-0.12;100.00
47763;BME280;33526;42.690;23.322;2023-12-20T00:30:40;95372.59;;;-0.39;100.00
47763;BME280;33526;42.690;23.322;2023-12-20T00:33:05;95363.13;;;-0.42;100.00
47763;BME280;33526;42.690;23.322;2023-12-20T00:35:31;95414.63;;;-0.03;100.00
47763;BME280;33526;42.690;23.322;2023-12-20T00:37:56;95442.91;;;0.19;100.00
47763;BME280;33526;42.690;23.322;2023-12-20T00:40:21;95354.13;;;-0.46;100.00
47763;BME280;33526;42.690;23.322;2023-12-20T00:42:47;95363.56;;;-0.32;100.00
47763;BME280;33526;42.690;23.322;2023-12-20T00:45:13;95380.84;;;-0.14;100.00
47763;BME280;33526;42.690;23.322;2023-12-20T00:47:40;95272.06;;;-0.80;100.00
47763;BME280;33526;42.690;23.322;2023-12-20T00:50:06;95428.00;;;0.28;100.00
47763;BME280;33526;42.690;23.322;2023-12-20T00:52:31;95398.91;;;0.12;100.00
47763;BME280;33526;42.690;23.322;2023-12-20T00:54:57;95380.47;;;-0.02;100.00
47763;BME280;33526;42.690;23.322;2023-12-20T00:57:22;95348.25;;;-0.26;100.00
47763;BME280;33526;42.690;23.322;2023-12-20T00:59:48;95354.16;;;-0.13;100.00
47763;BME280;33526;42.690;23.322;2023-12-20T01:02:14;95376.91;;;0.02;100.00
47763;BME280;33526;42.690;23.322;2023-12-20T01:04:39;95320.38;;;-0.28;100.00
47763;BME280;33526;42.690;23.322;2023-12-20T01:07:05;95258.34;;;-0.65;100.00
47763;BME280;33526;42.690;23.322;2023-12-20T01:09:30;95357.28;;;0.03;100.00
47763;BME280;33526;42.690;23.322;2023-12-20T01:11:57;95371.41;;;0.09;100.00
47763;BME280;33526;42.690;23.322;2023-12-20T01:14:22;95296.03;;;-0.48;100.00
47763;BME280;33526;42.690;23.322;2023-12-20T01:16:48;95384.38;;;0.15;100.00
47763;BME280;33526;42.690;23.322;2023-12-20T01:19:13;95359.66;;;-0.10;100.00
47763;BME280;33526;42.690;23.322;2023-12-20T01:21:41;95295.25;;;-0.48;100.00
47763;BME280;33526;42.690;23.322;2023-12-20T01:24:07;95342.75;;;-0.15;100.00
47763;BME280;33526;42.690;23.322;2023-12-20T01:26:32;95270.91;;;-0.64;100.00
47763;BME280;33526;42.690;23.322;2023-12-20T01:28:58;95345.50;;;-0.12;100.00
47763;BME280;33526;42.690;23.322;2023-12-20T01:31:23;95298.41;;;-0.35;100.00
47763;BME280;33526;42.690;23.322;2023-12-20T01:33:49;95251.66;;;-0.79;100.00
47763;BME280;33526;42.690;23.322;2023-12-20T01:36:20;95251.66;;;-0.75;100.00
47763;BME280;33526;42.690;23.322;2023-12-20T01:38:46;95283.44;;;-0.56;100.00
47763;BME280;33526;42.690;23.322;2023-12-20T01:41:11;95305.44;;;-0.42;100.00
47763;BME280;33526;42.690;23.322;2023-12-20T01:43:36;95309.38;;;-0.32;100.00
47763;BME280;33526;42.690;23.322;2023-12-20T01:46:02;95277.97;;;-0.49;100.00
47763;BME280;33526;42.690;23.322;2023-12-20T01:48:29;95322.75;;;-0.30;100.00
47763;BME280;33526;42.690;23.322;2023-12-20T01:50:55;95291.31;;;-0.58;100.00
47763;BME280;33526;42.690;23.322;2023-12-20T01:53:22;95264.63;;;-0.61;100.00
47763;BME280;33526;42.690;23.322;2023-12-20T01:55:50;95323.91;;;-0.24;100.00
47763;BME280;33526;42.690;23.322;2023-12-20T01:58:17;95293.28;;;-0.48;100.00
47763;BME280;33526;42.690;23.322;2023-12-20T02:00:44;95204.56;;;-1.09;100.00
47763;BME280;33526;42.690;23.322;2023-12-20T02:03:09;95249.72;;;-0.67;100.00
47763;BME280;33526;42.690;23.322;2023-12-20T02:05:35;95220.69;;;-0.83;100.00
47763;BME280;33526;42.690;23.322;2023-12-20T02:08:02;95258.34;;;-0.62;100.00
47763;BME280;33526;42.690;23.322;2023-12-20T02:10:28;95250.91;;;-0.61;100.00
47763;BME280;33526;42.690;23.322;2023-12-20T02:12:54;95242.66;;;-0.75;100.00
47763;BME280;33526;42.690;23.322;2023-12-20T02:15:19;95281.91;;;-0.43;100.00
47763;BME280;33526;42.690;23.322;2023-12-20T02:17:47;95221.47;;;-0.71;100.00
47763;BME280;33526;42.690;23.322;2023-12-20T02:20:13;95317.63;;;-0.07;100.00
47763;BME280;33526;42.690;23.322;2023-12-20T02:22:39;95151.59;;;-1.21;100.00
47763;BME280;33526;42.690;23.322;2023-12-20T02:25:04;95175.56;;;-1.03;100.00
47763;BME280;33526;42.690;23.322;2023-12-20T02:27:30;95271.31;;;-0.48;100.00
47763;BME280;33526;42.690;23.322;2023-12-20T02:29:55;95232.44;;;-0.79;100.00
47763;BME280;33526;42.690;23.322;2023-12-20T02:32:22;95232.44;;;-0.71;100.00
47763;BME280;33526;42.690;23.322;2023-12-20T02:34:49;95299.19;;;-0.24;100.00
47763;BME280;33526;42.690;23.322;2023-12-20T02:37:15;95314.09;;;-0.32;100.00
47763;BME280;33526;42.690;23.322;2023-12-20T02:39:40;95198.28;;;-1.06;100.00
47763;BME280;33526;42.690;23.322;2023-12-20T02:42:06;95252.06;;;-0.69;100.00
47763;BME280;33526;42.690;23.322;2023-12-20T02:44:34;95266.97;;;-0.56;100.00
47763;BME280;33526;42.690;23.322;2023-12-20T02:46:59;95131.22;;;-1.41;100.00
47763;BME280;33526;42.690;23.322;2023-12-20T02:49:25;95239.47;;;-0.99;100.00
47763;BME280;33526;42.690;23.322;2023-12-20T02:51:50;95270.13;;;-0.75;100.00
47763;BME280;33526;42.690;23.322;2023-12-20T02:54:16;95198.66;;;-1.26;100.00
47763;BME280;33526;42.690;23.322;2023-12-20T02:56:41;95270.06;;;-0.97;100.00
47763;BME280;33526;42.690;23.322;2023-12-20T02:59:06;95287.34;;;-0.93;100.00
47763;BME280;33526;42.690;23.322;2023-12-20T03:01:34;95203.66;;;-1.60;100.00
47763;BME280;33526;42.690;23.322;2023-12-20T03:04:02;95295.91;;;-1.09;100.00
47763;BME280;33526;42.690;23.322;2023-12-20T03:06:27;95196.13;;;-1.81;100.00
47763;BME280;33526;42.690;23.322;2023-12-20T03:08:53;95110.97;;;-2.32;100.00
47763;BME280;33526;42.690;23.322;2023-12-20T03:11:18;95229.16;;;-1.49;100.00
47763;BME280;33526;42.690;23.322;2023-12-20T03:13:44;95198.88;;;-1.81;100.00
47763;BME280;33526;42.690;23.322;2023-12-20T03:16:13;95289.59;;;-1.24;100.00
47763;BME280;33526;42.690;23.322;2023-12-20T03:18:39;95279.75;;;-1.32;100.00
47763;BME280;33526;42.690;23.322;2023-12-20T03:21:05;95197.25;;;-1.89;100.00
47763;BME280;33526;42.690;23.322;2023-12-20T03:23:30;95226.72;;;-1.68;100.00
47763;BME280;33526;42.690;23.322;2023-12-20T03:25:58;95271.97;;;-1.19;100.00
47763;BME280;33526;42.690;23.322;2023-12-20T03:28:23;95231.88;;;-1.52;100.00
47763;BME280;33526;42.690;23.322;2023-12-20T03:30:49;95252.69;;;-1.41;100.00
47763;BME280;33526;42.690;23.322;2023-12-20T03:33:14;95162.03;;;-1.87;100.00
47763;BME280;33526;42.690;23.322;2023-12-20T03:35:40;95173.38;;;-1.93;100.00
47763;BME280;33526;42.690;23.322;2023-12-20T03:38:06;95145.91;;;-2.10;100.00
47763;BME280;33526;42.690;23.322;2023-12-20T03:40:31;95226.72;;;-1.72;100.00
47763;BME280;33526;42.690;23.322;2023-12-20T03:42:57;95240.44;;;-1.68;100.00
47763;BME280;33526;42.690;23.322;2023-12-20T03:45:22;95264.50;;;-1.33;100.00
47763;BME280;33526;42.690;23.322;2023-12-20T03:47:48;95089.34;;;-2.51;100.00
47763;BME280;33526;42.690;23.322;2023-12-20T03:50:13;95264.50;;;-1.33;100.00
47763;BME280;33526;42.690;23.322;2023-12-20T03:52:39;95269.97;;;-1.37;100.00
47763;BME280;33526;42.690;23.322;2023-12-20T03:55:05;95120.72;;;-2.31;100.00
47763;BME280;33526;42.690;23.322;2023-12-20T03:57:30;95179.22;;;-1.98;100.00
47763;BME280;33526;42.690;23.322;2023-12-20T03:59:56;95231.88;;;-1.60;100.00
47763;BME280;33526;42.690;23.322;2023-12-20T04:02:21;95242.44;;;-1.62;100.00
47763;BME280;33526;42.690;23.322;2023-12-20T04:04:47;95214.13;;;-1.84;100.00
47763;BME280;33526;42.690;23.322;2023-12-20T04:07:12;95117.94;;;-2.41;100.00
47763;BME280;33526;42.690;23.322;2023-12-20T04:09:37;95162.31;;;-2.14;100.00
47763;BME280;33526;42.690;23.322;2023-12-20T04:12:03;95201.22;;;-1.83;100.00
47763;BME280;33526;42.690;23.322;2023-12-20T04:14:30;95187.50;;;-1.83;100.00
47763;BME280;33526;42.690;23.322;2023-12-20T04:16:55;95099.56;;;-2.41;100.00
47763;BME280;33526;42.690;23.322;2023-12-20T04:19:21;95150.22;;;-2.06;100.00
47763;BME280;33526;42.690;23.322;2023-12-20T04:21:46;95182.81;;;-1.79;100.00
47763;BME280;33526;42.690;23.322;2023-12-20T04:24:11;95157.69;;;-1.96;100.00
47763;BME280;33526;42.690;23.322;2023-12-20T04:26:37;95223.69;;;-1.45;100.00
47763;BME280;33526;42.690;23.322;2023-12-20T04:29:02;95207.22;;;-1.52;100.00
47763;BME280;33526;42.690;23.322;2023-12-20T04:31:28;95133.03;;;-1.96;100.00
47763;BME280;33526;42.690;23.322;2023-12-20T04:33:53;95123.59;;;-2.02;100.00
47763;BME280;33526;42.690;23.322;2023-12-20T04:36:19;95097.31;;;-2.24;100.00
47763;BME280;33526;42.690;23.322;2023-12-20T04:38:45;95080.88;;;-2.24;100.00
47763;BME280;33526;42.690;23.322;2023-12-20T04:41:10;95160.94;;;-1.68;100.00
47763;BME280;33526;42.690;23.322;2023-12-20T04:43:35;95145.59;;;-1.80;100.00
47763;BME280;33526;42.690;23.322;2023-12-20T04:46:01;95215.88;;;-1.36;100.00
47763;BME280;33526;42.690;23.322;2023-12-20T04:48:26;95113.81;;;-2.03;100.00
47763;BME280;33526;42.690;23.322;2023-12-20T04:50:52;95220.56;;;-1.40;100.00
47763;BME280;33526;42.690;23.322;2023-12-20T04:53:17;95137.75;;;-1.89;100.00
47763;BME280;33526;42.690;23.322;2023-12-20T04:55:43;95200.97;;;-1.42;100.00
47763;BME280;33526;42.690;23.322;2023-12-20T04:58:09;95210.38;;;-1.43;100.00
47763;BME280;33526;42.690;23.322;2023-12-20T05:00:34;95036.88;;;-2.67;100.00
47763;BME280;33526;42.690;23.322;2023-12-20T05:02:59;95209.50;;;-1.73;100.00
47763;BME280;33526;42.690;23.322;2023-12-20T05:05:25;95089.72;;;-2.53;100.00
47763;BME280;33526;42.690;23.322;2023-12-20T05:07:50;95152.41;;;-2.37;100.00
47763;BME280;33526;42.690;23.322;2023-12-20T05:10:16;95152.00;;;-2.39;100.00
47763;BME280;33526;42.690;23.322;2023-12-20T05:12:41;95076.09;;;-3.08;100.00
47763;BME280;33526;42.690;23.322;2023-12-20T05:15:08;95084.31;;;-3.04;100.00
47763;BME280;33526;42.690;23.322;2023-12-20T05:17:33;95100.13;;;-2.80;100.00
47763;BME280;33526;42.690;23.322;2023-12-20T05:19:59;95085.94;;;-3.00;100.00
47763;BME280;33526;42.690;23.322;2023-12-20T05:22:24;95074.88;;;-3.14;100.00
47763;BME280;33526;42.690;23.322;2023-12-20T05:24:50;95203.59;;;-2.48;100.00
47763;BME280;33526;42.690;23.322;2023-12-20T05:27:15;95204.75;;;-2.49;100.00
47763;BME280;33526;42.690;23.322;2023-12-20T05:29:41;95042.28;;;-3.37;100.00
47763;BME280;33526;42.690;23.322;2023-12-20T05:32:06;95132.88;;;-2.94;100.00
47763;BME280;33526;42.690;23.322;2023-12-20T05:34:34;95186.34;;;-2.52;100.00
47763;BME280;33526;42.690;23.322;2023-12-20T05:36:59;95087.00;;;-3.12;100.00
47763;BME280;33526;42.690;23.322;2023-12-20T05:39:26;95190.41;;;-2.32;100.00
47763;BME280;33526;42.690;23.322;2023-12-20T05:41:52;95087.88;;;-3.00;100.00
47763;BME280;33526;42.690;23.322;2023-12-20T05:44:17;95166.75;;;-2.58;100.00
47763;BME280;33526;42.690;23.322;2023-12-20T05:46:43;95015.59;;;-3.55;100.00
47763;BME280;33526;42.690;23.322;2023-12-20T05:49:09;95116.50;;;-2.87;100.00
47763;BME280;33526;42.690;23.322;2023-12-20T05:51:34;95120.03;;;-2.83;100.00
47763;BME280;33526;42.690;23.322;2023-12-20T05:53:59;94932.16;;;-3.93;100.00
47763;BME280;33526;42.690;23.322;2023-12-20T05:56:25;95068.00;;;-2.90;100.00
47763;BME280;33526;42.690;23.322;2023-12-20T05:58:50;94992.81;;;-3.18;100.00
47763;BME280;33526;42.690;23.322;2023-12-20T06:01:16;95047.84;;;-2.60;100.00
47763;BME280;33526;42.690;23.322;2023-12-20T06:03:44;95076.84;;;-2.45;100.00
47763;BME280;33526;42.690;23.322;2023-12-20T06:06:12;95108.28;;;-2.17;100.00
47763;BME280;33526;42.690;23.322;2023-12-20T06:08:38;95028.22;;;-2.77;100.00
47763;BME280;33526;42.690;23.322;2023-12-20T06:11:04;95156.13;;;-1.97;100.00
47763;BME280;33526;42.690;23.322;2023-12-20T06:13:30;95132.19;;;-2.14;100.00
47763;BME280;33526;42.690;23.322;2023-12-20T06:15:56;94991.00;;;-2.89;100.00
47763;BME280;33526;42.690;23.322;2023-12-20T06:18:22;95057.63;;;-2.59;100.00
47763;BME280;33526;42.690;23.322;2023-12-20T06:20:47;95171.84;;;-1.79;100.00
47763;BME280;33526;42.690;23.322;2023-12-20T06:23:13;95039.19;;;-2.70;100.00
47763;BME280;33526;42.690;23.322;2023-12-20T06:25:40;95015.31;;;-2.73;100.00
47763;BME280;33526;42.690;23.322;2023-12-20T06:28:05;95046.38;;;-2.33;100.00
47763;BME280;33526;42.690;23.322;2023-12-20T06:30:32;95167.63;;;-1.48;100.00
47763;BME280;33526;42.690;23.322;2023-12-20T06:32:58;95143.72;;;-1.62;100.00
47763;BME280;33526;42.690;23.322;2023-12-20T06:35:26;95157.06;;;-1.49;100.00
47763;BME280;33526;42.690;23.322;2023-12-20T06:37:52;95160.59;;;-1.52;100.00
47763;BME280;33526;42.690;23.322;2023-12-20T06:40:20;95099.00;;;-1.77;100.00
47763;BME280;33526;42.690;23.322;2023-12-20T06:42:46;95139.03;;;-1.50;100.00
47763;BME280;33526;42.690;23.322;2023-12-20T06:45:14;95072.72;;;-2.03;100.00
47763;BME280;33526;42.690;23.322;2023-12-20T06:47:40;95041.31;;;-2.27;100.00
47763;BME280;33526;42.690;23.322;2023-12-20T06:50:05;95089.56;;;-1.94;100.00
47763;BME280;33526;42.690;23.322;2023-12-20T06:52:33;94944.53;;;-2.78;100.00
47763;BME280;33526;42.690;23.322;2023-12-20T06:55:03;94874.03;;;-3.20;100.00
47763;BME280;33526;42.690;23.322;2023-12-20T06:57:29;95117.44;;;-1.70;100.00
47763;BME280;33526;42.690;23.322;2023-12-20T06:59:54;95114.75;;;-1.41;100.00
47763;BME280;33526;42.690;23.322;2023-12-20T07:02:23;94967.34;;;-2.38;100.00
47763;BME280;33526;42.690;23.322;2023-12-20T07:04:51;94880.31;;;-3.09;100.00
47763;BME280;33526;42.690;23.322;2023-12-20T07:07:22;95133.59;;;-1.11;100.00
47763;BME280;33526;42.690;23.322;2023-12-20T07:09:55;95033.22;;;-1.73;100.00
47763;BME280;33526;42.690;23.322;2023-12-20T07:12:27;94873.28;;;-3.07;100.00
47763;BME280;33526;42.690;23.322;2023-12-20T07:14:57;94957.59;;;-2.24;100.00
47763;BME280;33526;42.690;23.322;2023-12-20T07:17:28;95128.88;;;-0.96;100.00
47763;BME280;33526;42.690;23.322;2023-12-20T07:20:06;95007.00;;;-1.67;100.00
47763;BME280;33526;42.690;23.322;2023-12-20T07:22:48;94916.53;;;-2.17;100.00
47763;BME280;33526;42.690;23.322;2023-12-20T07:25:17;95026.97;;;-1.23;100.00
47763;BME280;33526;42.690;23.322;2023-12-20T07:27:43;94902.44;;;-2.19;100.00
47763;BME280;33526;42.690;23.322;2023-12-20T07:30:12;94885.59;;;-2.43;100.00
47763;BME280;33526;42.690;23.322;2023-12-20T07:32:41;94939.22;;;-2.06;100.00
47763;BME280;33526;42.690;23.322;2023-12-20T07:35:09;95127.31;;;-0.72;100.00
47763;BME280;33526;42.690;23.322;2023-12-20T07:37:35;95025.38;;;-1.17;100.00
47763;BME280;33526;42.690;23.322;2023-12-20T07:40:00;95113.16;;;-0.56;100.00
47763;BME280;33526;42.690;23.322;2023-12-20T07:42:28;95103.72;;;-0.48;100.00
47763;BME280;33526;42.690;23.322;2023-12-20T07:44:53;95120.19;;;-0.41;100.00
47763;BME280;33526;42.690;23.322;2023-12-20T07:47:19;95122.16;;;-0.34;100.00
47763;BME280;33526;42.690;23.322;2023-12-20T07:49:48;95036.34;;;-0.99;100.00
47763;BME280;33526;42.690;23.322;2023-12-20T07:52:15;95110.78;;;-0.40;100.00
47763;BME280;33526;42.690;23.322;2023-12-20T07:54:49;95106.84;;;-0.39;100.00
47763;BME280;33526;42.690;23.322;2023-12-20T07:57:19;95106.06;;;-0.43;100.00
47763;BME280;33526;42.690;23.322;2023-12-20T07:59:47;95064.56;;;-0.73;100.00
47763;BME280;33526;42.690;23.322;2023-12-20T08:02:19;94960.34;;;-1.17;100.00
47763;BME280;33526;42.690;23.322;2023-12-20T08:04:48;94931.31;;;-1.18;100.00
47763;BME280;33526;42.690;23.322;2023-12-20T08:07:24;94821.00;;;-1.94;100.00
47763;BME280;33526;42.690;23.322;2023-12-20T08:09:50;94975.94;;;-0.88;100.00
47763;BME280;33526;42.690;23.322;2023-12-20T08:12:29;94862.44;;;-1.56;100.00
47763;BME280;33526;42.690;23.322;2023-12-20T08:14:57;94945.34;;;-0.87;100.00
47763;BME280;33526;42.690;23.322;2023-12-20T08:17:25;94997.81;;;-0.63;100.00
47763;BME280;33526;42.690;23.322;2023-12-20T08:19:56;94874.06;;;-1.08;100.00
47763;BME280;33526;42.690;23.322;2023-12-20T08:22:25;94908.50;;;-0.93;100.00
47763;BME280;33526;42.690;23.322;2023-12-20T08:25:07;94924.09;;;-0.68;100.00
47763;BME280;33526;42.690;23.322;2023-12-20T08:28:05;94827.13;;;-1.32;100.00
47763;BME280;33526;42.690;23.322;2023-12-20T08:30:35;94944.38;;;-0.44;100.00
47763;BME280;33526;42.690;23.322;2023-12-20T08:33:01;95072.47;;;0.80;100.00
47763;BME280;33526;42.690;23.322;2023-12-20T08:35:30;94943.06;;;-0.18;100.00
47763;BME280;33526;42.690;23.322;2023-12-20T08:38:00;94833.34;;;-1.21;100.00
47763;BME280;33526;42.690;23.322;2023-12-20T08:40:34;94992.81;;;0.06;100.00
47763;BME280;33526;42.690;23.322;2023-12-20T08:43:04;95053.34;;;0.58;100.00
47763;BME280;33526;42.690;23.322;2023-12-20T08:45:30;94976.41;;;-0.09;100.00
47763;BME280;33526;42.690;23.322;2023-12-20T08:47:55;94887.38;;;-1.03;100.00
47763;BME280;33526;42.690;23.322;2023-12-20T08:50:21;94912.44;;;-0.94;100.00
47763;BME280;33526;42.690;23.322;2023-12-20T08:52:46;94907.75;;;-0.97;100.00
47763;BME280;33526;42.690;23.322;2023-12-20T08:55:12;94980.13;;;-0.48;100.00
47763;BME280;33526;42.690;23.322;2023-12-20T08:57:38;94979.06;;;-0.79;100.00
47763;BME280;33526;42.690;23.322;2023-12-20T09:00:04;94975.91;;;-0.78;100.00
47763;BME280;33526;42.690;23.322;2023-12-20T09:02:29;94972.00;;;-0.77;100.00
47763;BME280;33526;42.690;23.322;2023-12-20T09:04:55;95005.56;;;-0.33;100.00
47763;BME280;33526;42.690;23.322;2023-12-20T09:07:24;94916.31;;;-0.84;100.00
47763;BME280;33526;42.690;23.322;2023-12-20T09:09:50;94928.75;;;-0.58;100.00
47763;BME280;33526;42.690;23.322;2023-12-20T09:12:19;94915.19;;;-0.20;100.00
47763;BME280;33526;42.690;23.322;2023-12-20T09:14:50;94968.19;;;0.44;100.00
47763;BME280;33526;42.690;23.322;2023-12-20T09:17:20;94866.66;;;0.15;100.00
47763;BME280;33526;42.690;23.322;2023-12-20T09:19:48;94947.34;;;0.84;100.00
47763;BME280;33526;42.690;23.322;2023-12-20T09:22:13;94878.81;;;0.14;100.00
47763;BME280;33526;42.690;23.322;2023-12-20T09:24:39;94880.34;;;0.22;100.00
47763;BME280;33526;42.690;23.322;2023-12-20T09:27:05;94862.50;;;0.37;100.00
47763;BME280;33526;42.690;23.322;2023-12-20T09:29:31;94867.63;;;0.35;100.00
47763;BME280;33526;42.690;23.322;2023-12-20T09:31:58;94787.72;;;0.12;100.00
47763;BME280;33526;42.690;23.322;2023-12-20T09:34:25;94869.63;;;0.73;100.00
47763;BME280;33526;42.690;23.322;2023-12-20T09:36:54;94799.44;;;0.16;100.00
47763;BME280;33526;42.690;23.322;2023-12-20T09:39:22;94684.56;;;-0.42;100.00
47763;BME280;33526;42.690;23.322;2023-12-20T09:42:08;94790.59;;;0.39;100.00
47763;BME280;33526;42.690;23.322;2023-12-20T09:44:37;94693.78;;;-0.17;100.00
47763;BME280;33526;42.690;23.322;2023-12-20T09:47:27;94695.00;;;0.12;100.00
47763;BME280;33526;42.690;23.322;2023-12-20T09:49:56;94847.91;;;1.13;100.00
47763;BME280;33526;42.690;23.322;2023-12-20T09:52:29;94877.97;;;1.62;100.00
47763;BME280;33526;42.690;23.322;2023-12-20T09:54:59;94852.28;;;1.41;100.00
47763;BME280;33526;42.690;23.322;2023-12-20T09:57:52;94664.91;;;0.32;100.00
47763;BME280;33526;42.690;23.322;2023-12-20T10:00:27;94696.75;;;0.33;100.00
47763;BME280;33526;42.690;23.322;2023-12-20T10:02:58;94769.84;;;1.27;100.00
47763;BME280;33526;42.690;23.322;2023-12-20T10:05:28;94679.03;;;0.38;100.00
47763;BME280;33526;42.690;23.322;2023-12-20T10:07:58;94766.97;;;1.07;100.00
47763;BME280;33526;42.690;23.322;2023-12-20T10:10:25;94727.00;;;0.95;100.00
47763;BME280;33526;42.690;23.322;2023-12-20T10:13:08;94782.06;;;0.95;100.00
47763;BME280;33526;42.690;23.322;2023-12-20T10:15:37;94619.72;;;0.03;100.00
47763;BME280;33526;42.690;23.322;2023-12-20T10:18:05;94659.47;;;-0.06;100.00
47763;BME280;33526;42.690;23.322;2023-12-20T10:20:32;94866.38;;;1.74;100.00
47763;BME280;33526;42.690;23.322;2023-12-20T10:23:04;94720.25;;;0.72;100.00
47763;BME280;33526;42.690;23.322;2023-12-20T10:25:41;94862.38;;;1.51;100.00
47763;BME280;33526;42.690;23.322;2023-12-20T10:28:17;94759.31;;;0.91;100.00
47763;BME280;33526;42.690;23.322;2023-12-20T10:31:25;94744.13;;;0.79;100.00
47763;BME280;33526;42.690;23.322;2023-12-20T10:33:52;94738.06;;;0.91;100.00
47763;BME280;33526;42.690;23.322;2023-12-20T10:36:28;94839.19;;;1.76;100.00
47763;BME280;33526;42.690;23.322;2023-12-20T10:38:58;94650.44;;;0.59;100.00
47763;BME280;33526;42.690;23.322;2023-12-20T10:41:36;94838.88;;;1.43;100.00
47763;BME280;33526;42.690;23.322;2023-12-20T10:44:22;94705.28;;;0.43;100.00
47763;BME280;33526;42.690;23.322;2023-12-20T10:47:04;94680.22;;;0.03;100.00
47763;BME280;33526;42.690;23.322;2023-12-20T11:08:06;94627.34;;;0.22;100.00
47763;BME280;33526;42.690;23.322;2023-12-20T11:10:59;94789.44;;;1.32;100.00
47763;BME280;33526;42.690;23.322;2023-12-20T11:13:40;94703.78;;;0.69;100.00
47763;BME280;33526;42.690;23.322;2023-12-20T11:16:17;94669.50;;;0.73;100.00
47763;BME280;33526;42.690;23.322;2023-12-20T11:19:12;94626.97;;;0.51;100.00
47763;BME280;33526;42.690;23.322;2023-12-20T11:22:14;94683.09;;;0.84;100.00
47763;BME280;33526;42.690;23.322;2023-12-20T11:25:23;94748.66;;;1.47;100.00
47763;BME280;33526;42.690;23.322;2023-12-20T11:28:15;94755.28;;;1.53;100.00
47763;BME280;33526;42.690;23.322;2023-12-20T11:31:09;94736.34;;;1.56;100.00
47763;BME280;33526;42.690;23.322;2023-12-20T12:04:44;94607.06;;;1.65;100.00
47763;BME280;33526;42.690;23.322;2023-12-20T12:07:11;94660.97;;;2.09;100.00
47763;BME280;33526;42.690;23.322;2023-12-20T12:09:36;94629.13;;;2.05;100.00
47763;BME280;33526;42.690;23.322;2023-12-20T12:12:06;94662.25;;;2.45;100.00
47763;BME280;33526;42.690;23.322;2023-12-20T12:14:34;94627.22;;;2.42;100.00
47763;BME280;33526;42.690;23.322;2023-12-20T12:17:11;94613.13;;;2.56;100.00
47763;BME280;33526;42.690;23.322;2023-12-20T12:19:45;94500.47;;;1.58;100.00
47763;BME280;33526;42.690;23.322;2023-12-20T12:22:17;94395.75;;;1.02;100.00
47763;BME280;33526;42.690;23.322;2023-12-20T12:24:51;94536.53;;;1.87;100.00
47763;BME280;33526;42.690;23.322;2023-12-20T12:27:25;94559.34;;;2.08;100.00
47763;BME280;33526;42.690;23.322;2023-12-20T12:30:04;94562.03;;;2.12;100.00
47763;BME280;33526;42.690;23.322;2023-12-20T12:32:32;94510.31;;;1.59;100.00
47763;BME280;33526;42.690;23.322;2023-12-20T12:35:05;94446.81;;;1.06;100.00
47763;BME280;33526;42.690;23.322;2023-12-20T12:37:33;94626.88;;;2.40;100.00
47763;BME280;33526;42.690;23.322;2023-12-20T12:39:59;94527.19;;;1.41;100.00
47763;BME280;33526;42.690;23.322;2023-12-20T12:42:24;94567.56;;;1.71;100.00
47763;BME280;33526;42.690;23.322;2023-12-20T12:44:54;94573.00;;;1.75;100.00
47763;BME280;33526;42.690;23.322;2023-12-20T12:47:20;94577.38;;;1.92;100.00
47763;BME280;33526;42.690;23.322;2023-12-20T12:49:45;94472.94;;;1.38;100.00
47763;BME280;33526;42.690;23.322;2023-12-20T12:52:11;94484.31;;;1.40;100.00
47763;BME280;33526;42.690;23.322;2023-12-20T12:54:36;94551.09;;;1.68;100.00
47763;BME280;33526;42.690;23.322;2023-12-20T12:57:02;94502.69;;;1.03;100.00
47763;BME280;33526;42.690;23.322;2023-12-20T12:59:28;94550.31;;;1.24;100.00
47763;BME280;33526;42.690;23.322;2023-12-20T13:01:53;94618.16;;;1.61;100.00
47763;BME280;33526;42.690;23.322;2023-12-20T13:04:19;94501.19;;;0.99;100.00
47763;BME280;33526;42.690;23.322;2023-12-20T13:06:44;94575.09;;;1.47;100.00
47763;BME280;33526;42.690;23.322;2023-12-20T13:09:10;94438.34;;;0.73;100.00
47763;BME280;33526;42.690;23.322;2023-12-20T13:11:35;94498.38;;;1.02;100.00
47763;BME280;33526;42.690;23.322;2023-12-20T13:14:01;94513.03;;;1.19;100.00
47763;BME280;33526;42.690;23.322;2023-12-20T13:16:26;94557.59;;;1.58;100.00
47763;BME280;33526;42.690;23.322;2023-12-20T13:18:52;94533.41;;;1.45;100.00
47763;BME280;33526;42.690;23.322;2023-12-20T13:21:17;94533.00;;;1.67;100.00
47763;BME280;33526;42.690;23.322;2023-12-20T13:23:43;94496.97;;;1.38;100.00
47763;BME280;33526;42.690;23.322;2023-12-20T13:26:08;94518.88;;;1.65;100.00
47763;BME280;33526;42.690;23.322;2023-12-20T13:28:34;94544.16;;;1.60;100.00
47763;BME280;33526;42.690;23.322;2023-12-20T13:30:59;94464.28;;;0.96;100.00
47763;BME280;33526;42.690;23.322;2023-12-20T13:33:25;94520.97;;;1.37;100.00
47763;BME280;33526;42.690;23.322;2023-12-20T13:35:51;94597.31;;;1.80;100.00
47763;BME280;33526;42.690;23.322;2023-12-20T13:38:16;94497.19;;;1.03;100.00